Orbital elements of INTEGRAL
| Launched | 16 October 2002 |
| Flight ended | – |
| Launch site | Tyuratam Missile and Space Center, Kazakhstan (Also known as Baikonur Cosmodrome) |
| Owner | European Space Agency |
| NORAD ID | 27540 |
| Date fetched |
Epoch osculation |
Inc. [°] |
Ecc. | RA asc node [hr] |
Arg Peri. [°] |
Mean anom [°] |
Mean motion [rev/day] |
Abs. mag |
| Date fetched |
Epoch osculation |
Inc. [°] |
Ecc. | RA asc node [hr] |
Arg Peri. [°] |
Mean anom [°] |
Mean motion [rev/day] |
Abs. mag |
| 2026 May 05 17:57 | 2026 May 04 13:36:21 | 90.2289 | 0.86896 | 23.2931 | 261.5857 | 41.8432 | 0.37575 | 3.743 |
| 2026 May 04 17:57 | 2026 Apr 27 09:41:40 | 90.2777 | 0.86833 | 23.3155 | 261.7587 | 41.8432 | 0.37575 | 3.743 |
| 2026 May 03 17:57 | 2026 Apr 27 09:41:40 | 90.2777 | 0.86833 | 23.3155 | 261.7587 | 41.8432 | 0.37575 | 3.743 |
| 2026 May 02 17:57 | 2026 Apr 27 09:41:40 | 90.2777 | 0.86833 | 23.3155 | 261.7587 | 41.8432 | 0.37575 | 3.743 |
| 2026 May 01 17:56 | 2026 Apr 27 09:41:40 | 90.2777 | 0.86833 | 23.3155 | 261.7587 | 41.8432 | 0.37575 | 3.743 |
| 2026 Apr 30 17:56 | 2026 Apr 27 09:41:40 | 90.2777 | 0.86833 | 23.3155 | 261.7587 | 41.8432 | 0.37575 | 3.743 |
| 2026 Apr 29 17:57 | 2026 Apr 23 07:14:01 | 90.2933 | 0.86784 | 23.3268 | 261.9003 | 41.8432 | 0.37575 | 3.743 |
| 2026 Apr 28 17:56 | 2026 Apr 23 07:14:01 | 90.2933 | 0.86784 | 23.3268 | 261.9003 | 41.8432 | 0.37575 | 3.743 |
| 2026 Apr 27 17:58 | 2026 Apr 23 07:14:01 | 90.2933 | 0.86784 | 23.3268 | 261.9003 | 41.8432 | 0.37575 | 3.743 |
| 2026 Apr 26 17:58 | 2026 Apr 23 07:14:01 | 90.2933 | 0.86784 | 23.3268 | 261.9003 | 41.8432 | 0.37575 | 3.743 |
| 2026 Apr 25 17:58 | 2026 Apr 23 07:14:01 | 90.2933 | 0.86784 | 23.3268 | 261.9003 | 41.8432 | 0.37575 | 3.743 |
| 2026 Apr 24 17:59 | 2026 Apr 23 07:14:01 | 90.2933 | 0.86784 | 23.3268 | 261.9003 | 41.8432 | 0.37575 | 3.743 |
| 2026 Apr 23 17:57 | 2026 Apr 15 06:06:31 | 90.3586 | 0.86773 | 23.3522 | 262.1860 | 41.8432 | 0.37575 | 3.743 |
| 2026 Apr 22 17:57 | 2026 Apr 15 06:06:31 | 90.3586 | 0.86773 | 23.3522 | 262.1860 | 41.8432 | 0.37575 | 3.743 |
| 2026 Apr 21 17:57 | 2026 Apr 15 06:06:31 | 90.3586 | 0.86773 | 23.3522 | 262.1860 | 41.8432 | 0.37575 | 3.743 |
| 2026 Apr 20 17:57 | 2026 Apr 15 06:06:31 | 90.3586 | 0.86773 | 23.3522 | 262.1860 | 41.8432 | 0.37575 | 3.743 |
| 2026 Apr 19 17:58 | 2026 Apr 15 06:06:31 | 90.3586 | 0.86773 | 23.3522 | 262.1860 | 41.8432 | 0.37575 | 3.743 |
| 2026 Apr 18 17:56 | 2026 Apr 12 08:13:04 | 90.3788 | 0.86803 | 23.3624 | 262.2732 | 41.8432 | 0.37575 | 3.743 |
| 2026 Apr 16 17:57 | 2026 Apr 12 08:13:04 | 90.3788 | 0.86803 | 23.3624 | 262.2732 | 41.8432 | 0.37575 | 3.743 |
| 2026 Apr 14 17:57 | 2026 Apr 12 08:13:04 | 90.3788 | 0.86803 | 23.3624 | 262.2732 | 41.8432 | 0.37575 | 3.743 |
| 2026 Apr 13 17:57 | 2026 Apr 12 08:13:04 | 90.3788 | 0.86803 | 23.3624 | 262.2732 | 41.8432 | 0.37575 | 3.743 |
| 2026 Apr 12 17:57 | 2026 Apr 07 14:57:39 | 90.4135 | 0.86809 | 23.3790 | 262.3857 | 41.8432 | 0.37575 | 3.743 |
| 2026 Apr 11 17:57 | 2026 Apr 07 14:57:39 | 90.4135 | 0.86809 | 23.3790 | 262.3857 | 41.8432 | 0.37575 | 3.743 |
| 2026 Apr 10 17:58 | 2026 Apr 07 14:57:39 | 90.4135 | 0.86809 | 23.3790 | 262.3857 | 41.8432 | 0.37575 | 3.743 |
| 2026 Apr 09 18:01 | 2026 Apr 07 14:57:39 | 90.4135 | 0.86809 | 23.3790 | 262.3857 | 41.8432 | 0.37575 | 3.743 |
| 2026 Apr 08 17:57 | 2026 Apr 07 14:57:39 | 90.4135 | 0.86809 | 23.3790 | 262.3857 | 41.8432 | 0.37575 | 3.743 |